sensor_id;sensor_type;location;lat;lon;timestamp;P1;durP1;ratioP1;P2;durP2;ratioP2
32108;SDS011;18624;50.042;8.436;2023-04-02T00:02:47;7.45;;;4.75;;
32108;SDS011;18624;50.042;8.436;2023-04-02T00:07:51;7.30;;;5.00;;
32108;SDS011;18624;50.042;8.436;2023-04-02T00:15:36;7.88;;;4.75;;
32108;SDS011;18624;50.042;8.436;2023-04-02T00:18:14;7.70;;;4.85;;
32108;SDS011;18624;50.042;8.436;2023-04-02T00:20:45;8.68;;;5.97;;
32108;SDS011;18624;50.042;8.436;2023-04-02T00:23:13;9.80;;;5.85;;
32108;SDS011;18624;50.042;8.436;2023-04-02T00:25:41;8.23;;;5.28;;
32108;SDS011;18624;50.042;8.436;2023-04-02T00:28:11;6.40;;;4.38;;
32108;SDS011;18624;50.042;8.436;2023-04-02T00:30:45;8.27;;;5.93;;
32108;SDS011;18624;50.042;8.436;2023-04-02T00:33:16;7.93;;;5.45;;
32108;SDS011;18624;50.042;8.436;2023-04-02T00:35:44;7.25;;;4.97;;
32108;SDS011;18624;50.042;8.436;2023-04-02T00:38:17;8.00;;;5.05;;
32108;SDS011;18624;50.042;8.436;2023-04-02T00:40:48;7.35;;;4.90;;
32108;SDS011;18624;50.042;8.436;2023-04-02T00:43:16;7.88;;;5.00;;
32108;SDS011;18624;50.042;8.436;2023-04-02T00:45:43;9.38;;;5.72;;
32108;SDS011;18624;50.042;8.436;2023-04-02T00:48:26;8.93;;;5.25;;
32108;SDS011;18624;50.042;8.436;2023-04-02T00:50:54;10.10;;;5.68;;
32108;SDS011;18624;50.042;8.436;2023-04-02T00:53:26;8.13;;;5.63;;
32108;SDS011;18624;50.042;8.436;2023-04-02T00:55:54;10.77;;;6.63;;
32108;SDS011;18624;50.042;8.436;2023-04-02T00:58:27;9.63;;;5.20;;
32108;SDS011;18624;50.042;8.436;2023-04-02T01:00:57;8.43;;;5.25;;
32108;SDS011;18624;50.042;8.436;2023-04-02T01:03:29;7.28;;;4.53;;
32108;SDS011;18624;50.042;8.436;2023-04-02T01:06:02;7.68;;;5.10;;
32108;SDS011;18624;50.042;8.436;2023-04-02T01:14:10;7.07;;;5.10;;
32108;SDS011;18624;50.042;8.436;2023-04-02T01:20:02;7.20;;;4.88;;
32108;SDS011;18624;50.042;8.436;2023-04-02T01:22:43;19.10;;;12.80;;
32108;SDS011;18624;50.042;8.436;2023-04-02T01:25:19;6.38;;;4.50;;
32108;SDS011;18624;50.042;8.436;2023-04-02T01:28:00;24.73;;;16.33;;
32108;SDS011;18624;50.042;8.436;2023-04-02T01:30:51;6.55;;;4.57;;
32108;SDS011;18624;50.042;8.436;2023-04-02T01:33:20;9.25;;;5.43;;
32108;SDS011;18624;50.042;8.436;2023-04-02T01:35:50;7.05;;;4.70;;
32108;SDS011;18624;50.042;8.436;2023-04-02T01:41:24;7.82;;;5.72;;
32108;SDS011;18624;50.042;8.436;2023-04-02T01:44:06;7.22;;;5.13;;
32108;SDS011;18624;50.042;8.436;2023-04-02T01:46:35;9.45;;;6.25;;
32108;SDS011;18624;50.042;8.436;2023-04-02T01:49:11;7.20;;;5.60;;
32108;SDS011;18624;50.042;8.436;2023-04-02T01:51:43;10.27;;;7.05;;
32108;SDS011;18624;50.042;8.436;2023-04-02T01:54:14;7.55;;;5.38;;
32108;SDS011;18624;50.042;8.436;2023-04-02T01:56:42;7.70;;;5.35;;
32108;SDS011;18624;50.042;8.436;2023-04-02T01:59:10;8.48;;;6.18;;
32108;SDS011;18624;50.042;8.436;2023-04-02T02:01:47;9.25;;;6.18;;
32108;SDS011;18624;50.042;8.436;2023-04-02T02:04:28;7.07;;;4.85;;
32108;SDS011;18624;50.042;8.436;2023-04-02T02:06:56;7.22;;;5.28;;
32108;SDS011;18624;50.042;8.436;2023-04-02T02:09:24;10.18;;;6.13;;
32108;SDS011;18624;50.042;8.436;2023-04-02T02:11:55;8.27;;;5.60;;
32108;SDS011;18624;50.042;8.436;2023-04-02T02:14:24;7.28;;;5.05;;
32108;SDS011;18624;50.042;8.436;2023-04-02T02:16:53;7.75;;;5.30;;
32108;SDS011;18624;50.042;8.436;2023-04-02T02:19:26;8.27;;;5.63;;
32108;SDS011;18624;50.042;8.436;2023-04-02T02:22:06;9.60;;;5.07;;
32108;SDS011;18624;50.042;8.436;2023-04-02T02:24:37;10.05;;;6.53;;
32108;SDS011;18624;50.042;8.436;2023-04-02T02:27:20;7.03;;;4.95;;
32108;SDS011;18624;50.042;8.436;2023-04-02T02:32:50;14.50;;;10.13;;
32108;SDS011;18624;50.042;8.436;2023-04-02T02:35:31;13.85;;;9.00;;
32108;SDS011;18624;50.042;8.436;2023-04-02T02:38:21;12.43;;;8.70;;
32108;SDS011;18624;50.042;8.436;2023-04-02T02:41:07;13.65;;;9.05;;
32108;SDS011;18624;50.042;8.436;2023-04-02T02:43:40;14.82;;;10.05;;
32108;SDS011;18624;50.042;8.436;2023-04-02T02:46:15;15.10;;;9.90;;
32108;SDS011;18624;50.042;8.436;2023-04-02T02:48:45;14.35;;;10.13;;
32108;SDS011;18624;50.042;8.436;2023-04-02T02:51:16;14.00;;;9.25;;
32108;SDS011;18624;50.042;8.436;2023-04-02T02:53:52;13.07;;;8.20;;
32108;SDS011;18624;50.042;8.436;2023-04-02T02:56:20;10.90;;;7.50;;
32108;SDS011;18624;50.042;8.436;2023-04-02T02:58:50;13.40;;;8.75;;
32108;SDS011;18624;50.042;8.436;2023-04-02T03:01:22;15.07;;;9.77;;
32108;SDS011;18624;50.042;8.436;2023-04-02T03:03:52;11.45;;;7.80;;
32108;SDS011;18624;50.042;8.436;2023-04-02T03:06:21;11.70;;;8.05;;
32108;SDS011;18624;50.042;8.436;2023-04-02T03:09:02;11.85;;;8.15;;
32108;SDS011;18624;50.042;8.436;2023-04-02T03:11:38;14.20;;;9.13;;
32108;SDS011;18624;50.042;8.436;2023-04-02T03:14:21;13.57;;;8.43;;
32108;SDS011;18624;50.042;8.436;2023-04-02T03:16:59;13.60;;;8.82;;
32108;SDS011;18624;50.042;8.436;2023-04-02T03:19:51;14.68;;;9.20;;
32108;SDS011;18624;50.042;8.436;2023-04-02T03:25:45;11.75;;;7.75;;
32108;SDS011;18624;50.042;8.436;2023-04-02T03:27:48;13.30;;;8.75;;
32108;SDS011;18624;50.042;8.436;2023-04-02T03:33:41;6.38;;;4.47;;
32108;SDS011;18624;50.042;8.436;2023-04-02T03:36:14;7.32;;;5.10;;
32108;SDS011;18624;50.042;8.436;2023-04-02T03:38:53;7.82;;;5.35;;
32108;SDS011;18624;50.042;8.436;2023-04-02T03:44:04;6.35;;;4.60;;
32108;SDS011;18624;50.042;8.436;2023-04-02T03:46:41;10.30;;;7.13;;
32108;SDS011;18624;50.042;8.436;2023-04-02T03:49:13;7.90;;;5.28;;
32108;SDS011;18624;50.042;8.436;2023-04-02T03:51:54;9.73;;;6.55;;
32108;SDS011;18624;50.042;8.436;2023-04-02T03:54:26;8.70;;;5.45;;
32108;SDS011;18624;50.042;8.436;2023-04-02T03:56:53;8.27;;;5.75;;
32108;SDS011;18624;50.042;8.436;2023-04-02T03:59:30;8.40;;;5.30;;
32108;SDS011;18624;50.042;8.436;2023-04-02T04:02:21;9.27;;;6.13;;
32108;SDS011;18624;50.042;8.436;2023-04-02T04:05:01;9.30;;;6.03;;
32108;SDS011;18624;50.042;8.436;2023-04-02T04:07:31;7.53;;;4.95;;
32108;SDS011;18624;50.042;8.436;2023-04-02T04:10:01;8.10;;;5.35;;
32108;SDS011;18624;50.042;8.436;2023-04-02T04:15:21;8.57;;;5.25;;
32108;SDS011;18624;50.042;8.436;2023-04-02T04:21:04;7.70;;;5.43;;
32108;SDS011;18624;50.042;8.436;2023-04-02T04:23:38;10.18;;;6.45;;
32108;SDS011;18624;50.042;8.436;2023-04-02T04:26:16;8.07;;;5.63;;
32108;SDS011;18624;50.042;8.436;2023-04-02T04:28:58;7.90;;;5.25;;
32108;SDS011;18624;50.042;8.436;2023-04-02T04:31:40;10.10;;;7.22;;
32108;SDS011;18624;50.042;8.436;2023-04-02T04:34:14;8.63;;;6.05;;
32108;SDS011;18624;50.042;8.436;2023-04-02T04:36:46;12.43;;;8.27;;
32108;SDS011;18624;50.042;8.436;2023-04-02T04:39:25;8.77;;;5.85;;
32108;SDS011;18624;50.042;8.436;2023-04-02T04:42:00;7.70;;;5.85;;
32108;SDS011;18624;50.042;8.436;2023-04-02T04:44:39;7.55;;;5.80;;
32108;SDS011;18624;50.042;8.436;2023-04-02T04:47:15;8.40;;;5.70;;
32108;SDS011;18624;50.042;8.436;2023-04-02T04:49:50;11.13;;;6.60;;
32108;SDS011;18624;50.042;8.436;2023-04-02T04:52:23;9.65;;;6.75;;
32108;SDS011;18624;50.042;8.436;2023-04-02T04:54:53;9.55;;;6.45;;
32108;SDS011;18624;50.042;8.436;2023-04-02T05:00:13;9.75;;;6.45;;
32108;SDS011;18624;50.042;8.436;2023-04-02T05:02:47;11.13;;;8.38;;
32108;SDS011;18624;50.042;8.436;2023-04-02T05:05:24;7.82;;;6.20;;
32108;SDS011;18624;50.042;8.436;2023-04-02T05:07:57;9.52;;;6.90;;
32108;SDS011;18624;50.042;8.436;2023-04-02T05:10:30;9.85;;;7.07;;
32108;SDS011;18624;50.042;8.436;2023-04-02T05:13:16;9.20;;;6.50;;
32108;SDS011;18624;50.042;8.436;2023-04-02T05:18:51;3.15;;;2.88;;
32108;SDS011;18624;50.042;8.436;2023-04-02T05:21:20;3.53;;;3.22;;
32108;SDS011;18624;50.042;8.436;2023-04-02T05:26:30;4.97;;;3.60;;
32108;SDS011;18624;50.042;8.436;2023-04-02T05:29:14;4.50;;;3.47;;
32108;SDS011;18624;50.042;8.436;2023-04-02T05:34:28;3.78;;;3.42;;
32108;SDS011;18624;50.042;8.436;2023-04-02T05:36:57;3.60;;;3.28;;
32108;SDS011;18624;50.042;8.436;2023-04-02T05:39:25;4.82;;;4.30;;
32108;SDS011;18624;50.042;8.436;2023-04-02T05:42:06;4.50;;;4.00;;
32108;SDS011;18624;50.042;8.436;2023-04-02T05:47:34;7.00;;;4.78;;
32108;SDS011;18624;50.042;8.436;2023-04-02T05:50:28;5.03;;;4.07;;
32108;SDS011;18624;50.042;8.436;2023-04-02T05:53:18;4.40;;;4.00;;
32108;SDS011;18624;50.042;8.436;2023-04-02T05:58:39;5.63;;;4.30;;
32108;SDS011;18624;50.042;8.436;2023-04-02T06:01:28;6.10;;;4.78;;
32108;SDS011;18624;50.042;8.436;2023-04-02T06:04:09;5.18;;;4.25;;
32108;SDS011;18624;50.042;8.436;2023-04-02T06:06:44;5.10;;;4.05;;
32108;SDS011;18624;50.042;8.436;2023-04-02T06:11:58;5.07;;;4.57;;
32108;SDS011;18624;50.042;8.436;2023-04-02T06:14:33;6.63;;;5.47;;
32108;SDS011;18624;50.042;8.436;2023-04-02T06:17:00;6.60;;;5.78;;
32108;SDS011;18624;50.042;8.436;2023-04-02T06:19:31;4.63;;;4.22;;
32108;SDS011;18624;50.042;8.436;2023-04-02T06:25:24;5.75;;;4.68;;
32108;SDS011;18624;50.042;8.436;2023-04-02T06:27:57;6.20;;;5.60;;
32108;SDS011;18624;50.042;8.436;2023-04-02T06:30:29;6.05;;;5.40;;
32108;SDS011;18624;50.042;8.436;2023-04-02T06:32:59;6.05;;;5.32;;
32108;SDS011;18624;50.042;8.436;2023-04-02T06:35:28;5.75;;;5.15;;
32108;SDS011;18624;50.042;8.436;2023-04-02T06:37:59;6.63;;;5.45;;
32108;SDS011;18624;50.042;8.436;2023-04-02T06:43:33;6.03;;;5.43;;
32108;SDS011;18624;50.042;8.436;2023-04-02T06:46:18;5.97;;;5.38;;
32108;SDS011;18624;50.042;8.436;2023-04-02T06:49:16;6.05;;;5.45;;
32108;SDS011;18624;50.042;8.436;2023-04-02T06:51:53;7.00;;;5.60;;
32108;SDS011;18624;50.042;8.436;2023-04-02T06:54:21;3.03;;;1.88;;
32108;SDS011;18624;50.042;8.436;2023-04-02T06:56:53;1.80;;;1.08;;
32108;SDS011;18624;50.042;8.436;2023-04-02T06:59:31;1.42;;;1.10;;
32108;SDS011;18624;50.042;8.436;2023-04-02T07:02:00;1.33;;;1.23;;
32108;SDS011;18624;50.042;8.436;2023-04-02T07:04:37;1.33;;;1.23;;
32108;SDS011;18624;50.042;8.436;2023-04-02T07:07:04;1.15;;;1.05;;
32108;SDS011;18624;50.042;8.436;2023-04-02T07:09:35;1.60;;;1.50;;
32108;SDS011;18624;50.042;8.436;2023-04-02T07:12:09;1.67;;;1.58;;
32108;SDS011;18624;50.042;8.436;2023-04-02T07:14:36;1.83;;;1.73;;
32108;SDS011;18624;50.042;8.436;2023-04-02T07:17:03;1.42;;;1.33;;
32108;SDS011;18624;50.042;8.436;2023-04-02T07:19:29;2.78;;;1.42;;
32108;SDS011;18624;50.042;8.436;2023-04-02T07:21:57;1.30;;;1.20;;
32108;SDS011;18624;50.042;8.436;2023-04-02T07:24:30;2.27;;;2.13;;
32108;SDS011;18624;50.042;8.436;2023-04-02T07:26:56;1.55;;;1.45;;
32108;SDS011;18624;50.042;8.436;2023-04-02T07:29:22;1.40;;;1.30;;
32108;SDS011;18624;50.042;8.436;2023-04-02T07:31:49;1.00;;;1.00;;
32108;SDS011;18624;50.042;8.436;2023-04-02T07:34:17;1.42;;;1.15;;
32108;SDS011;18624;50.042;8.436;2023-04-02T07:36:44;1.90;;;1.70;;
32108;SDS011;18624;50.042;8.436;2023-04-02T07:39:10;1.40;;;1.27;;
32108;SDS011;18624;50.042;8.436;2023-04-02T07:41:50;2.88;;;1.95;;
32108;SDS011;18624;50.042;8.436;2023-04-02T07:44:18;2.38;;;2.17;;
32108;SDS011;18624;50.042;8.436;2023-04-02T07:46:44;2.08;;;1.83;;
32108;SDS011;18624;50.042;8.436;2023-04-02T07:49:10;3.15;;;1.25;;
32108;SDS011;18624;50.042;8.436;2023-04-02T07:51:37;3.50;;;1.52;;
32108;SDS011;18624;50.042;8.436;2023-04-02T07:54:03;1.98;;;1.35;;
32108;SDS011;18624;50.042;8.436;2023-04-02T07:56:30;1.00;;;1.00;;
32108;SDS011;18624;50.042;8.436;2023-04-02T07:58:56;1.92;;;1.05;;
32108;SDS011;18624;50.042;8.436;2023-04-02T08:01:24;1.45;;;1.35;;
32108;SDS011;18624;50.042;8.436;2023-04-02T08:03:55;2.47;;;1.33;;
32108;SDS011;18624;50.042;8.436;2023-04-02T08:06:23;2.17;;;1.95;;
32108;SDS011;18624;50.042;8.436;2023-04-02T08:08:50;2.30;;;2.10;;
32108;SDS011;18624;50.042;8.436;2023-04-02T08:11:16;1.65;;;1.52;;
32108;SDS011;18624;50.042;8.436;2023-04-02T08:13:42;1.70;;;1.60;;
32108;SDS011;18624;50.042;8.436;2023-04-02T08:16:09;2.00;;;1.83;;
32108;SDS011;18624;50.042;8.436;2023-04-02T08:18:36;2.15;;;1.70;;
32108;SDS011;18624;50.042;8.436;2023-04-02T08:21:07;1.83;;;1.52;;
32108;SDS011;18624;50.042;8.436;2023-04-02T08:23:35;1.58;;;1.48;;
32108;SDS011;18624;50.042;8.436;2023-04-02T08:26:02;1.55;;;1.45;;
32108;SDS011;18624;50.042;8.436;2023-04-02T08:28:29;1.40;;;1.30;;
32108;SDS011;18624;50.042;8.436;2023-04-02T08:30:55;1.60;;;1.50;;
32108;SDS011;18624;50.042;8.436;2023-04-02T08:33:22;1.40;;;1.30;;
32108;SDS011;18624;50.042;8.436;2023-04-02T08:35:48;2.20;;;1.98;;
32108;SDS011;18624;50.042;8.436;2023-04-02T08:38:16;1.90;;;1.70;;
32108;SDS011;18624;50.042;8.436;2023-04-02T08:40:45;2.38;;;1.80;;
32108;SDS011;18624;50.042;8.436;2023-04-02T08:43:17;2.30;;;2.10;;
32108;SDS011;18624;50.042;8.436;2023-04-02T08:49:07;1.63;;;1.38;;
32108;SDS011;18624;50.042;8.436;2023-04-02T08:51:38;5.72;;;2.08;;
32108;SDS011;18624;50.042;8.436;2023-04-02T08:54:17;2.35;;;2.15;;
32108;SDS011;18624;50.042;8.436;2023-04-02T08:56:58;10.55;;;4.05;;
32108;SDS011;18624;50.042;8.436;2023-04-02T08:59:36;2.35;;;1.65;;
32108;SDS011;18624;50.042;8.436;2023-04-02T09:04:55;2.08;;;1.70;;
32108;SDS011;18624;50.042;8.436;2023-04-02T09:07:27;1.73;;;1.52;;
32108;SDS011;18624;50.042;8.436;2023-04-02T09:09:54;1.38;;;1.27;;
32108;SDS011;18624;50.042;8.436;2023-04-02T09:12:25;1.30;;;1.20;;
32108;SDS011;18624;50.042;8.436;2023-04-02T09:17:37;1.70;;;1.60;;
32108;SDS011;18624;50.042;8.436;2023-04-02T09:20:20;1.43;;;1.33;;
32108;SDS011;18624;50.042;8.436;2023-04-02T09:22:49;1.70;;;1.60;;
32108;SDS011;18624;50.042;8.436;2023-04-02T09:25:18;1.80;;;1.30;;
32108;SDS011;18624;50.042;8.436;2023-04-02T09:27:49;4.00;;;2.88;;
32108;SDS011;18624;50.042;8.436;2023-04-02T09:32:55;2.10;;;1.90;;
32108;SDS011;18624;50.042;8.436;2023-04-02T09:35:23;1.85;;;1.75;;
32108;SDS011;18624;50.042;8.436;2023-04-02T09:41:00;1.80;;;1.70;;
32108;SDS011;18624;50.042;8.436;2023-04-02T09:43:32;2.45;;;1.95;;
32108;SDS011;18624;50.042;8.436;2023-04-02T09:48:33;2.30;;;2.10;;
32108;SDS011;18624;50.042;8.436;2023-04-02T09:51:12;2.00;;;1.83;;
32108;SDS011;18624;50.042;8.436;2023-04-02T09:53:47;2.07;;;1.87;;
32108;SDS011;18624;50.042;8.436;2023-04-02T09:58:45;2.13;;;1.92;;
32108;SDS011;18624;50.042;8.436;2023-04-02T10:01:35;3.45;;;2.17;;
32108;SDS011;18624;50.042;8.436;2023-04-02T10:04:05;2.45;;;2.25;;
32108;SDS011;18624;50.042;8.436;2023-04-02T10:06:52;2.55;;;2.35;;
32108;SDS011;18624;50.042;8.436;2023-04-02T10:09:27;2.35;;;2.05;;
32108;SDS011;18624;50.042;8.436;2023-04-02T10:11:56;2.33;;;2.00;;
32108;SDS011;18624;50.042;8.436;2023-04-02T10:14:25;2.53;;;2.33;;
32108;SDS011;18624;50.042;8.436;2023-04-02T10:16:56;2.03;;;1.93;;
32108;SDS011;18624;50.042;8.436;2023-04-02T10:19:46;2.42;;;2.22;;
32108;SDS011;18624;50.042;8.436;2023-04-02T10:22:17;2.22;;;2.03;;
32108;SDS011;18624;50.042;8.436;2023-04-02T10:24:46;2.90;;;2.53;;
32108;SDS011;18624;50.042;8.436;2023-04-02T10:27:33;2.80;;;2.60;;
32108;SDS011;18624;50.042;8.436;2023-04-02T10:30:23;2.55;;;2.35;;
32108;SDS011;18624;50.042;8.436;2023-04-02T10:36:00;2.42;;;2.22;;
32108;SDS011;18624;50.042;8.436;2023-04-02T10:38:49;2.78;;;2.58;;
32108;SDS011;18624;50.042;8.436;2023-04-02T10:44:03;2.80;;;2.60;;
32108;SDS011;18624;50.042;8.436;2023-04-02T10:49:32;2.65;;;2.45;;
32108;SDS011;18624;50.042;8.436;2023-04-02T10:54:41;2.17;;;1.98;;
32108;SDS011;18624;50.042;8.436;2023-04-02T11:00:07;2.70;;;2.50;;
32108;SDS011;18624;50.042;8.436;2023-04-02T11:05:36;2.92;;;2.53;;
32108;SDS011;18624;50.042;8.436;2023-04-02T11:08:22;2.50;;;2.30;;
32108;SDS011;18624;50.042;8.436;2023-04-02T11:13:45;2.22;;;2.03;;
32108;SDS011;18624;50.042;8.436;2023-04-02T11:16:26;2.45;;;2.25;;
32108;SDS011;18624;50.042;8.436;2023-04-02T11:21:45;3.03;;;2.72;;
32108;SDS011;18624;50.042;8.436;2023-04-02T11:42:37;2.95;;;2.70;;
32108;SDS011;18624;50.042;8.436;2023-04-02T11:52:58;2.42;;;2.22;;
32108;SDS011;18624;50.042;8.436;2023-04-02T11:55:30;2.20;;;2.00;;
32108;SDS011;18624;50.042;8.436;2023-04-02T12:03:40;3.05;;;2.50;;
32108;SDS011;18624;50.042;8.436;2023-04-02T12:09:43;2.63;;;2.42;;
32108;SDS011;18624;50.042;8.436;2023-04-02T12:12:26;2.53;;;2.33;;
32108;SDS011;18624;50.042;8.436;2023-04-02T12:14:58;2.67;;;2.47;;
32108;SDS011;18624;50.042;8.436;2023-04-02T12:17:30;2.60;;;2.40;;
32108;SDS011;18624;50.042;8.436;2023-04-02T12:22:39;3.17;;;2.88;;
32108;SDS011;18624;50.042;8.436;2023-04-02T12:25:25;3.17;;;2.58;;
32108;SDS011;18624;50.042;8.436;2023-04-02T12:28:04;2.60;;;2.40;;
32108;SDS011;18624;50.042;8.436;2023-04-02T12:30:37;3.80;;;3.50;;
32108;SDS011;18624;50.042;8.436;2023-04-02T12:33:13;3.33;;;3.03;;
32108;SDS011;18624;50.042;8.436;2023-04-02T12:35:46;2.70;;;2.50;;
32108;SDS011;18624;50.042;8.436;2023-04-02T12:38:19;3.03;;;2.83;;
32108;SDS011;18624;50.042;8.436;2023-04-02T12:40:54;5.25;;;3.72;;
32108;SDS011;18624;50.042;8.436;2023-04-02T12:43:25;3.78;;;3.47;;
32108;SDS011;18624;50.042;8.436;2023-04-02T12:45:53;2.92;;;2.65;;
32108;SDS011;18624;50.042;8.436;2023-04-02T12:48:22;2.95;;;2.75;;
32108;SDS011;18624;50.042;8.436;2023-04-02T12:50:50;3.72;;;3.42;;
32108;SDS011;18624;50.042;8.436;2023-04-02T12:53:24;3.25;;;3.03;;
32108;SDS011;18624;50.042;8.436;2023-04-02T12:55:55;3.95;;;3.33;;
32108;SDS011;18624;50.042;8.436;2023-04-02T12:58:35;4.00;;;3.60;;
32108;SDS011;18624;50.042;8.436;2023-04-02T13:01:12;2.95;;;2.72;;
32108;SDS011;18624;50.042;8.436;2023-04-02T13:04:01;3.15;;;2.95;;
32108;SDS011;18624;50.042;8.436;2023-04-02T13:06:30;3.83;;;3.17;;
32108;SDS011;18624;50.042;8.436;2023-04-02T13:08:57;2.97;;;2.70;;
32108;SDS011;18624;50.042;8.436;2023-04-02T13:11:36;3.80;;;3.40;;
32108;SDS011;18624;50.042;8.436;2023-04-02T13:14:04;4.45;;;4.05;;
32108;SDS011;18624;50.042;8.436;2023-04-02T13:16:40;3.97;;;3.58;;
32108;SDS011;18624;50.042;8.436;2023-04-02T13:19:11;2.83;;;2.47;;
32108;SDS011;18624;50.042;8.436;2023-04-02T13:21:45;3.55;;;3.20;;
32108;SDS011;18624;50.042;8.436;2023-04-02T13:24:15;3.83;;;3.53;;
32108;SDS011;18624;50.042;8.436;2023-04-02T13:26:46;3.67;;;3.38;;
32108;SDS011;18624;50.042;8.436;2023-04-02T13:32:02;4.70;;;4.20;;
32108;SDS011;18624;50.042;8.436;2023-04-02T13:34:36;5.35;;;3.60;;
32108;SDS011;18624;50.042;8.436;2023-04-02T13:37:03;4.30;;;3.90;;
32108;SDS011;18624;50.042;8.436;2023-04-02T13:39:29;3.60;;;3.30;;
32108;SDS011;18624;50.042;8.436;2023-04-02T13:41:57;4.38;;;4.07;;
32108;SDS011;18624;50.042;8.436;2023-04-02T13:44:32;3.33;;;3.03;;
32108;SDS011;18624;50.042;8.436;2023-04-02T13:46:59;6.05;;;3.53;;
32108;SDS011;18624;50.042;8.436;2023-04-02T13:49:26;4.60;;;3.95;;
32108;SDS011;18624;50.042;8.436;2023-04-02T13:51:53;4.43;;;4.03;;
32108;SDS011;18624;50.042;8.436;2023-04-02T13:54:29;4.63;;;4.22;;
32108;SDS011;18624;50.042;8.436;2023-04-02T13:57:05;4.40;;;4.00;;
32108;SDS011;18624;50.042;8.436;2023-04-02T13:59:32;5.03;;;4.30;;
32108;SDS011;18624;50.042;8.436;2023-04-02T14:02:01;4.30;;;3.90;;
32108;SDS011;18624;50.042;8.436;2023-04-02T14:04:33;5.35;;;3.97;;
32108;SDS011;18624;50.042;8.436;2023-04-02T14:12:39;5.30;;;4.78;;
32108;SDS011;18624;50.042;8.436;2023-04-02T14:15:20;4.90;;;4.40;;
32108;SDS011;18624;50.042;8.436;2023-04-02T14:18:20;6.32;;;4.82;;
32108;SDS011;18624;50.042;8.436;2023-04-02T14:21:07;5.80;;;5.00;;
32108;SDS011;18624;50.042;8.436;2023-04-02T14:23:41;5.60;;;5.07;;
32108;SDS011;18624;50.042;8.436;2023-04-02T14:26:36;6.82;;;5.60;;
32108;SDS011;18624;50.042;8.436;2023-04-02T14:29:15;7.38;;;5.93;;
32108;SDS011;18624;50.042;8.436;2023-04-02T14:32:02;6.30;;;5.70;;
32108;SDS011;18624;50.042;8.436;2023-04-02T14:34:45;5.53;;;4.97;;
32108;SDS011;18624;50.042;8.436;2023-04-02T14:40:21;6.90;;;6.20;;
32108;SDS011;18624;50.042;8.436;2023-04-02T14:51:36;5.43;;;4.93;;
32108;SDS011;18624;50.042;8.436;2023-04-02T14:54:14;5.35;;;4.55;;
32108;SDS011;18624;50.042;8.436;2023-04-02T14:56:58;6.07;;;4.45;;
32108;SDS011;18624;50.042;8.436;2023-04-02T14:59:47;6.65;;;6.10;;
32108;SDS011;18624;50.042;8.436;2023-04-02T15:02:18;5.00;;;4.47;;
32108;SDS011;18624;50.042;8.436;2023-04-02T15:04:54;6.78;;;5.25;;
32108;SDS011;18624;50.042;8.436;2023-04-02T15:07:29;4.32;;;3.92;;
32108;SDS011;18624;50.042;8.436;2023-04-02T15:10:16;5.70;;;4.85;;
32108;SDS011;18624;50.042;8.436;2023-04-02T15:12:57;4.85;;;4.35;;
32108;SDS011;18624;50.042;8.436;2023-04-02T15:15:37;5.80;;;4.57;;
32108;SDS011;18624;50.042;8.436;2023-04-02T15:18:11;4.88;;;4.38;;
32108;SDS011;18624;50.042;8.436;2023-04-02T15:20:52;7.07;;;5.38;;
32108;SDS011;18624;50.042;8.436;2023-04-02T15:23:49;6.95;;;4.70;;
32108;SDS011;18624;50.042;8.436;2023-04-02T15:26:24;5.25;;;4.75;;
32108;SDS011;18624;50.042;8.436;2023-04-02T15:35:04;4.68;;;4.28;;
32108;SDS011;18624;50.042;8.436;2023-04-02T15:37:44;8.38;;;4.90;;
32108;SDS011;18624;50.042;8.436;2023-04-02T15:40:25;5.90;;;5.30;;
32108;SDS011;18624;50.042;8.436;2023-04-02T15:43:20;5.45;;;4.35;;
32108;SDS011;18624;50.042;8.436;2023-04-02T15:45:58;4.60;;;4.20;;
32108;SDS011;18624;50.042;8.436;2023-04-02T15:49:00;4.68;;;3.45;;
32108;SDS011;18624;50.042;8.436;2023-04-02T15:54:29;5.03;;;4.40;;
32108;SDS011;18624;50.042;8.436;2023-04-02T15:57:14;4.68;;;4.15;;
32108;SDS011;18624;50.042;8.436;2023-04-02T16:05:35;5.55;;;4.13;;
32108;SDS011;18624;50.042;8.436;2023-04-02T16:08:35;5.15;;;3.60;;
32108;SDS011;18624;50.042;8.436;2023-04-02T16:11:27;5.05;;;4.22;;
32108;SDS011;18624;50.042;8.436;2023-04-02T16:14:03;4.78;;;4.00;;
32108;SDS011;18624;50.042;8.436;2023-04-02T16:16:41;5.45;;;3.70;;
32108;SDS011;18624;50.042;8.436;2023-04-02T16:19:12;4.28;;;3.88;;
32108;SDS011;18624;50.042;8.436;2023-04-02T16:22:32;4.90;;;4.22;;
32108;SDS011;18624;50.042;8.436;2023-04-02T16:24:58;4.80;;;4.20;;
32108;SDS011;18624;50.042;8.436;2023-04-02T16:27:39;4.40;;;4.00;;
32108;SDS011;18624;50.042;8.436;2023-04-02T16:30:26;4.93;;;4.43;;
32108;SDS011;18624;50.042;8.436;2023-04-02T16:49:56;11.73;;;9.75;;
32108;SDS011;18624;50.042;8.436;2023-04-02T16:52:49;12.68;;;8.63;;
32108;SDS011;18624;50.042;8.436;2023-04-02T16:58:46;7.45;;;5.70;;
32108;SDS011;18624;50.042;8.436;2023-04-02T17:06:48;5.55;;;4.95;;
32108;SDS011;18624;50.042;8.436;2023-04-02T17:14:51;6.30;;;4.88;;
32108;SDS011;18624;50.042;8.436;2023-04-02T17:17:23;7.43;;;5.03;;
32108;SDS011;18624;50.042;8.436;2023-04-02T17:19:52;8.23;;;6.00;;
32108;SDS011;18624;50.042;8.436;2023-04-02T17:22:25;7.57;;;5.20;;
32108;SDS011;18624;50.042;8.436;2023-04-02T17:24:56;6.18;;;5.50;;
32108;SDS011;18624;50.042;8.436;2023-04-02T17:29:57;5.28;;;4.75;;
32108;SDS011;18624;50.042;8.436;2023-04-02T17:32:30;7.30;;;5.90;;
32108;SDS011;18624;50.042;8.436;2023-04-02T17:35:01;6.53;;;5.82;;
32108;SDS011;18624;50.042;8.436;2023-04-02T17:43:02;6.03;;;5.20;;
32108;SDS011;18624;50.042;8.436;2023-04-02T17:48:36;5.65;;;5.13;;
32108;SDS011;18624;50.042;8.436;2023-04-02T17:51:22;5.30;;;4.88;;
32108;SDS011;18624;50.042;8.436;2023-04-02T18:05:05;6.63;;;5.55;;
32108;SDS011;18624;50.042;8.436;2023-04-02T18:10:14;5.97;;;4.97;;
32108;SDS011;18624;50.042;8.436;2023-04-02T18:20:21;5.18;;;4.68;;
32108;SDS011;18624;50.042;8.436;2023-04-02T18:29:03;5.00;;;4.60;;
32108;SDS011;18624;50.042;8.436;2023-04-02T18:31:49;5.28;;;4.50;;
32108;SDS011;18624;50.042;8.436;2023-04-02T18:37:11;5.32;;;4.63;;
32108;SDS011;18624;50.042;8.436;2023-04-02T18:48:16;6.25;;;4.55;;
32108;SDS011;18624;50.042;8.436;2023-04-02T18:50:53;5.10;;;4.03;;
32108;SDS011;18624;50.042;8.436;2023-04-02T18:53:23;4.97;;;4.07;;
32108;SDS011;18624;50.042;8.436;2023-04-02T19:03:51;7.28;;;5.32;;
32108;SDS011;18624;50.042;8.436;2023-04-02T19:06:28;6.75;;;5.72;;
32108;SDS011;18624;50.042;8.436;2023-04-02T19:09:03;6.00;;;5.10;;
32108;SDS011;18624;50.042;8.436;2023-04-02T19:11:42;5.32;;;4.57;;
32108;SDS011;18624;50.042;8.436;2023-04-02T19:14:10;5.30;;;3.72;;
32108;SDS011;18624;50.042;8.436;2023-04-02T19:19:22;4.95;;;3.65;;
32108;SDS011;18624;50.042;8.436;2023-04-02T19:22:10;4.13;;;3.45;;
32108;SDS011;18624;50.042;8.436;2023-04-02T19:24:58;4.85;;;3.75;;
32108;SDS011;18624;50.042;8.436;2023-04-02T19:38:52;6.18;;;3.60;;
32108;SDS011;18624;50.042;8.436;2023-04-02T19:41:43;4.28;;;3.83;;
32108;SDS011;18624;50.042;8.436;2023-04-02T19:44:14;6.15;;;3.80;;
32108;SDS011;18624;50.042;8.436;2023-04-02T19:46:42;3.60;;;3.30;;
32108;SDS011;18624;50.042;8.436;2023-04-02T19:49:10;3.85;;;3.45;;
32108;SDS011;18624;50.042;8.436;2023-04-02T19:51:42;4.15;;;3.50;;
32108;SDS011;18624;50.042;8.436;2023-04-02T19:54:09;4.00;;;3.67;;
32108;SDS011;18624;50.042;8.436;2023-04-02T19:56:35;4.18;;;3.55;;
32108;SDS011;18624;50.042;8.436;2023-04-02T19:59:02;3.55;;;3.25;;
32108;SDS011;18624;50.042;8.436;2023-04-02T20:01:43;4.57;;;3.50;;
32108;SDS011;18624;50.042;8.436;2023-04-02T20:04:09;4.50;;;3.28;;
32108;SDS011;18624;50.042;8.436;2023-04-02T20:06:36;3.58;;;3.28;;
32108;SDS011;18624;50.042;8.436;2023-04-02T20:09:02;4.28;;;3.50;;
32108;SDS011;18624;50.042;8.436;2023-04-02T20:11:29;6.35;;;3.47;;